sensor_id;sensor_type;location;lat;lon;timestamp;P1;durP1;ratioP1;P2;durP2;ratioP2
35290;SDS011;21411;50.024;19.220;2022-11-15T00:00:56;80.20;;;29.80;;
35290;SDS011;21411;50.024;19.220;2022-11-15T00:03:23;98.00;;;30.40;;
35290;SDS011;21411;50.024;19.220;2022-11-15T00:05:51;64.90;;;29.80;;
35290;SDS011;21411;50.024;19.220;2022-11-15T00:08:18;84.00;;;29.40;;
35290;SDS011;21411;50.024;19.220;2022-11-15T00:10:57;98.10;;;31.30;;
35290;SDS011;21411;50.024;19.220;2022-11-15T00:13:26;92.30;;;32.90;;
35290;SDS011;21411;50.024;19.220;2022-11-15T00:15:52;124.80;;;31.30;;
35290;SDS011;21411;50.024;19.220;2022-11-15T00:20:49;143.80;;;29.60;;
35290;SDS011;21411;50.024;19.220;2022-11-15T00:23:15;170.30;;;31.60;;
35290;SDS011;21411;50.024;19.220;2022-11-15T00:25:42;152.10;;;30.60;;
35290;SDS011;21411;50.024;19.220;2022-11-15T00:28:09;134.00;;;29.50;;
35290;SDS011;21411;50.024;19.220;2022-11-15T00:30:35;177.00;;;32.40;;
35290;SDS011;21411;50.024;19.220;2022-11-15T00:33:03;122.60;;;28.90;;
35290;SDS011;21411;50.024;19.220;2022-11-15T00:35:33;92.80;;;29.10;;
35290;SDS011;21411;50.024;19.220;2022-11-15T00:40:27;113.00;;;27.70;;
35290;SDS011;21411;50.024;19.220;2022-11-15T00:42:54;111.00;;;27.80;;
35290;SDS011;21411;50.024;19.220;2022-11-15T00:45:20;118.70;;;29.00;;
35290;SDS011;21411;50.024;19.220;2022-11-15T00:47:47;114.60;;;27.70;;
35290;SDS011;21411;50.024;19.220;2022-11-15T00:50:13;96.80;;;26.60;;
35290;SDS011;21411;50.024;19.220;2022-11-15T00:52:40;136.10;;;28.80;;
35290;SDS011;21411;50.024;19.220;2022-11-15T00:55:08;123.10;;;28.00;;
35290;SDS011;21411;50.024;19.220;2022-11-15T00:57:39;115.00;;;26.70;;
35290;SDS011;21411;50.024;19.220;2022-11-15T01:00:06;117.60;;;27.00;;
35290;SDS011;21411;50.024;19.220;2022-11-15T01:02:34;103.80;;;26.70;;
35290;SDS011;21411;50.024;19.220;2022-11-15T01:05:01;96.10;;;26.90;;
35290;SDS011;21411;50.024;19.220;2022-11-15T01:07:27;109.00;;;28.60;;
35290;SDS011;21411;50.024;19.220;2022-11-15T01:09:54;114.30;;;26.10;;
35290;SDS011;21411;50.024;19.220;2022-11-15T01:12:20;95.70;;;26.70;;
35290;SDS011;21411;50.024;19.220;2022-11-15T01:14:47;127.20;;;26.80;;
35290;SDS011;21411;50.024;19.220;2022-11-15T01:17:13;105.10;;;25.50;;
35290;SDS011;21411;50.024;19.220;2022-11-15T01:19:41;153.20;;;26.70;;
35290;SDS011;21411;50.024;19.220;2022-11-15T01:22:08;110.70;;;27.70;;
35290;SDS011;21411;50.024;19.220;2022-11-15T01:24:34;97.50;;;26.70;;
35290;SDS011;21411;50.024;19.220;2022-11-15T01:27:01;69.50;;;26.20;;
35290;SDS011;21411;50.024;19.220;2022-11-15T01:29:27;59.30;;;26.40;;
35290;SDS011;21411;50.024;19.220;2022-11-15T01:31:54;71.70;;;25.80;;
35290;SDS011;21411;50.024;19.220;2022-11-15T01:34:20;99.20;;;27.50;;
35290;SDS011;21411;50.024;19.220;2022-11-15T01:36:47;112.20;;;27.50;;
35290;SDS011;21411;50.024;19.220;2022-11-15T01:39:13;60.50;;;26.70;;
35290;SDS011;21411;50.024;19.220;2022-11-15T01:41:40;59.10;;;27.20;;
35290;SDS011;21411;50.024;19.220;2022-11-15T01:44:31;81.70;;;27.40;;
35290;SDS011;21411;50.024;19.220;2022-11-15T01:47:01;90.30;;;29.60;;
35290;SDS011;21411;50.024;19.220;2022-11-15T01:49:31;75.80;;;26.80;;
35290;SDS011;21411;50.024;19.220;2022-11-15T01:52:00;68.80;;;27.20;;
35290;SDS011;21411;50.024;19.220;2022-11-15T01:54:29;80.20;;;26.60;;
35290;SDS011;21411;50.024;19.220;2022-11-15T01:57:00;64.50;;;25.40;;
35290;SDS011;21411;50.024;19.220;2022-11-15T01:59:30;87.30;;;26.70;;
35290;SDS011;21411;50.024;19.220;2022-11-15T02:01:57;87.20;;;26.30;;
35290;SDS011;21411;50.024;19.220;2022-11-15T02:04:24;59.50;;;24.80;;
35290;SDS011;21411;50.024;19.220;2022-11-15T02:06:53;86.40;;;27.60;;
35290;SDS011;21411;50.024;19.220;2022-11-15T02:09:20;82.20;;;27.80;;
35290;SDS011;21411;50.024;19.220;2022-11-15T02:11:46;75.80;;;24.70;;
35290;SDS011;21411;50.024;19.220;2022-11-15T02:14:16;72.00;;;24.80;;
35290;SDS011;21411;50.024;19.220;2022-11-15T02:30:55;56.20;;;27.80;;
35290;SDS011;21411;50.024;19.220;2022-11-15T02:36:15;56.60;;;26.80;;
35290;SDS011;21411;50.024;19.220;2022-11-15T02:41:42;84.80;;;25.80;;
35290;SDS011;21411;50.024;19.220;2022-11-15T02:44:23;75.70;;;24.30;;
35290;SDS011;21411;50.024;19.220;2022-11-15T02:47:09;65.90;;;23.20;;
35290;SDS011;21411;50.024;19.220;2022-11-15T02:49:48;41.10;;;23.70;;
35290;SDS011;21411;50.024;19.220;2022-11-15T02:52:18;49.60;;;24.80;;
35290;SDS011;21411;50.024;19.220;2022-11-15T02:57:44;49.80;;;25.80;;
35290;SDS011;21411;50.024;19.220;2022-11-15T03:06:03;50.80;;;24.50;;
35290;SDS011;21411;50.024;19.220;2022-11-15T03:11:21;43.60;;;23.60;;
35290;SDS011;21411;50.024;19.220;2022-11-15T03:14:02;60.30;;;24.60;;
35290;SDS011;21411;50.024;19.220;2022-11-15T03:19:46;42.10;;;22.80;;
35290;SDS011;21411;50.024;19.220;2022-11-15T03:22:20;54.00;;;23.60;;
35290;SDS011;21411;50.024;19.220;2022-11-15T03:24:51;66.50;;;29.20;;
35290;SDS011;21411;50.024;19.220;2022-11-15T03:27:21;66.40;;;29.90;;
35290;SDS011;21411;50.024;19.220;2022-11-15T03:29:54;41.00;;;28.10;;
35290;SDS011;21411;50.024;19.220;2022-11-15T03:32:26;37.30;;;26.10;;
35290;SDS011;21411;50.024;19.220;2022-11-15T03:34:57;63.70;;;25.80;;
35290;SDS011;21411;50.024;19.220;2022-11-15T03:37:35;47.80;;;25.50;;
35290;SDS011;21411;50.024;19.220;2022-11-15T03:40:06;47.90;;;25.30;;
35290;SDS011;21411;50.024;19.220;2022-11-15T03:47:41;48.80;;;25.00;;
35290;SDS011;21411;50.024;19.220;2022-11-15T03:50:17;51.70;;;26.90;;
35290;SDS011;21411;50.024;19.220;2022-11-15T03:52:46;55.90;;;25.30;;
35290;SDS011;21411;50.024;19.220;2022-11-15T03:55:17;82.30;;;26.80;;
35290;SDS011;21411;50.024;19.220;2022-11-15T03:57:47;61.60;;;26.80;;
35290;SDS011;21411;50.024;19.220;2022-11-15T04:00:16;84.10;;;28.90;;
35290;SDS011;21411;50.024;19.220;2022-11-15T04:02:43;69.60;;;29.20;;
35290;SDS011;21411;50.024;19.220;2022-11-15T04:05:09;86.90;;;26.80;;
35290;SDS011;21411;50.024;19.220;2022-11-15T04:07:36;81.00;;;25.60;;
35290;SDS011;21411;50.024;19.220;2022-11-15T04:10:03;73.60;;;27.00;;
35290;SDS011;21411;50.024;19.220;2022-11-15T04:12:33;69.20;;;25.40;;
35290;SDS011;21411;50.024;19.220;2022-11-15T04:15:07;55.80;;;22.80;;
35290;SDS011;21411;50.024;19.220;2022-11-15T04:20:14;84.50;;;24.90;;
35290;SDS011;21411;50.024;19.220;2022-11-15T04:23:13;66.60;;;24.50;;
35290;SDS011;21411;50.024;19.220;2022-11-15T04:26:19;79.90;;;28.30;;
35290;SDS011;21411;50.024;19.220;2022-11-15T04:28:48;100.70;;;26.30;;
35290;SDS011;21411;50.024;19.220;2022-11-15T04:31:33;76.60;;;26.50;;
35290;SDS011;21411;50.024;19.220;2022-11-15T04:34:00;80.70;;;27.00;;
35290;SDS011;21411;50.024;19.220;2022-11-15T04:36:26;82.00;;;26.50;;
35290;SDS011;21411;50.024;19.220;2022-11-15T04:39:11;76.90;;;27.30;;
35290;SDS011;21411;50.024;19.220;2022-11-15T04:41:37;58.60;;;24.30;;
35290;SDS011;21411;50.024;19.220;2022-11-15T04:44:04;107.30;;;24.80;;
35290;SDS011;21411;50.024;19.220;2022-11-15T04:46:30;81.30;;;24.10;;
35290;SDS011;21411;50.024;19.220;2022-11-15T04:48:58;120.00;;;26.30;;
35290;SDS011;21411;50.024;19.220;2022-11-15T04:51:25;93.30;;;26.90;;
35290;SDS011;21411;50.024;19.220;2022-11-15T04:53:51;68.80;;;26.00;;
35290;SDS011;21411;50.024;19.220;2022-11-15T04:56:18;100.60;;;26.40;;
35290;SDS011;21411;50.024;19.220;2022-11-15T04:58:45;87.30;;;25.70;;
35290;SDS011;21411;50.024;19.220;2022-11-15T05:01:15;77.60;;;26.00;;
35290;SDS011;21411;50.024;19.220;2022-11-15T05:03:42;84.80;;;24.70;;
35290;SDS011;21411;50.024;19.220;2022-11-15T05:06:27;69.00;;;24.30;;
35290;SDS011;21411;50.024;19.220;2022-11-15T05:08:56;68.20;;;22.80;;
35290;SDS011;21411;50.024;19.220;2022-11-15T05:11:23;75.10;;;24.20;;
35290;SDS011;21411;50.024;19.220;2022-11-15T05:13:49;98.00;;;25.10;;
35290;SDS011;21411;50.024;19.220;2022-11-15T05:16:16;69.30;;;25.30;;
35290;SDS011;21411;50.024;19.220;2022-11-15T05:18:43;60.30;;;27.30;;
35290;SDS011;21411;50.024;19.220;2022-11-15T05:21:12;78.10;;;26.80;;
35290;SDS011;21411;50.024;19.220;2022-11-15T05:23:40;62.50;;;25.20;;
35290;SDS011;21411;50.024;19.220;2022-11-15T05:26:07;79.00;;;27.60;;
35290;SDS011;21411;50.024;19.220;2022-11-15T05:28:35;69.50;;;26.50;;
35290;SDS011;21411;50.024;19.220;2022-11-15T05:31:15;64.80;;;26.10;;
35290;SDS011;21411;50.024;19.220;2022-11-15T05:33:42;93.70;;;27.10;;
35290;SDS011;21411;50.024;19.220;2022-11-15T05:38:44;115.70;;;29.00;;
35290;SDS011;21411;50.024;19.220;2022-11-15T05:41:12;130.40;;;26.10;;
35290;SDS011;21411;50.024;19.220;2022-11-15T05:43:39;116.80;;;27.60;;
35290;SDS011;21411;50.024;19.220;2022-11-15T05:46:07;65.90;;;25.60;;
35290;SDS011;21411;50.024;19.220;2022-11-15T05:48:34;121.30;;;30.80;;
35290;SDS011;21411;50.024;19.220;2022-11-15T05:51:03;112.90;;;29.30;;
35290;SDS011;21411;50.024;19.220;2022-11-15T05:53:32;105.30;;;29.50;;
35290;SDS011;21411;50.024;19.220;2022-11-15T05:56:00;71.00;;;31.20;;
35290;SDS011;21411;50.024;19.220;2022-11-15T05:58:28;65.30;;;28.80;;
35290;SDS011;21411;50.024;19.220;2022-11-15T06:00:56;87.20;;;29.90;;
35290;SDS011;21411;50.024;19.220;2022-11-15T06:03:23;60.40;;;29.70;;
35290;SDS011;21411;50.024;19.220;2022-11-15T06:05:49;74.80;;;28.00;;
35290;SDS011;21411;50.024;19.220;2022-11-15T06:08:16;63.50;;;28.30;;
35290;SDS011;21411;50.024;19.220;2022-11-15T06:10:42;64.10;;;30.30;;
35290;SDS011;21411;50.024;19.220;2022-11-15T06:13:09;76.50;;;30.00;;
35290;SDS011;21411;50.024;19.220;2022-11-15T06:15:35;82.70;;;32.20;;
35290;SDS011;21411;50.024;19.220;2022-11-15T06:18:02;72.40;;;32.50;;
35290;SDS011;21411;50.024;19.220;2022-11-15T06:20:30;60.20;;;31.40;;
35290;SDS011;21411;50.024;19.220;2022-11-15T06:23:01;89.60;;;30.20;;
35290;SDS011;21411;50.024;19.220;2022-11-15T06:25:30;61.40;;;28.60;;
35290;SDS011;21411;50.024;19.220;2022-11-15T06:27:58;57.40;;;25.90;;
35290;SDS011;21411;50.024;19.220;2022-11-15T06:30:25;49.40;;;26.80;;
35290;SDS011;21411;50.024;19.220;2022-11-15T06:32:58;76.10;;;27.20;;
35290;SDS011;21411;50.024;19.220;2022-11-15T06:35:28;49.20;;;26.30;;
35290;SDS011;21411;50.024;19.220;2022-11-15T06:37:56;68.40;;;25.10;;
35290;SDS011;21411;50.024;19.220;2022-11-15T06:40:27;61.90;;;22.60;;
35290;SDS011;21411;50.024;19.220;2022-11-15T06:42:57;67.10;;;24.70;;
35290;SDS011;21411;50.024;19.220;2022-11-15T06:45:25;68.40;;;24.10;;
35290;SDS011;21411;50.024;19.220;2022-11-15T06:47:52;65.30;;;23.90;;
35290;SDS011;21411;50.024;19.220;2022-11-15T06:50:19;57.70;;;23.90;;
35290;SDS011;21411;50.024;19.220;2022-11-15T06:52:45;52.10;;;26.80;;
35290;SDS011;21411;50.024;19.220;2022-11-15T06:55:12;52.80;;;26.80;;
35290;SDS011;21411;50.024;19.220;2022-11-15T06:57:46;74.60;;;28.70;;
35290;SDS011;21411;50.024;19.220;2022-11-15T07:00:17;68.70;;;27.10;;
35290;SDS011;21411;50.024;19.220;2022-11-15T07:02:45;58.60;;;27.00;;
35290;SDS011;21411;50.024;19.220;2022-11-15T07:05:12;41.40;;;25.10;;
35290;SDS011;21411;50.024;19.220;2022-11-15T07:07:39;52.40;;;25.40;;
35290;SDS011;21411;50.024;19.220;2022-11-15T07:10:07;51.70;;;25.60;;
35290;SDS011;21411;50.024;19.220;2022-11-15T07:12:34;60.40;;;26.00;;
35290;SDS011;21411;50.024;19.220;2022-11-15T07:15:01;57.70;;;26.20;;
35290;SDS011;21411;50.024;19.220;2022-11-15T07:17:28;62.00;;;25.60;;
35290;SDS011;21411;50.024;19.220;2022-11-15T07:19:54;51.90;;;26.80;;
35290;SDS011;21411;50.024;19.220;2022-11-15T07:22:21;43.90;;;24.10;;
35290;SDS011;21411;50.024;19.220;2022-11-15T07:24:48;52.40;;;24.30;;
35290;SDS011;21411;50.024;19.220;2022-11-15T07:27:14;53.70;;;25.60;;
35290;SDS011;21411;50.024;19.220;2022-11-15T07:29:41;49.30;;;24.40;;
35290;SDS011;21411;50.024;19.220;2022-11-15T07:32:08;42.30;;;25.10;;
35290;SDS011;21411;50.024;19.220;2022-11-15T07:34:35;65.50;;;25.50;;
35290;SDS011;21411;50.024;19.220;2022-11-15T07:37:02;48.10;;;23.50;;
35290;SDS011;21411;50.024;19.220;2022-11-15T07:39:28;52.40;;;25.20;;
35290;SDS011;21411;50.024;19.220;2022-11-15T07:41:55;47.10;;;22.90;;
35290;SDS011;21411;50.024;19.220;2022-11-15T07:44:41;49.80;;;23.90;;
35290;SDS011;21411;50.024;19.220;2022-11-15T07:47:08;68.30;;;25.10;;
35290;SDS011;21411;50.024;19.220;2022-11-15T07:49:34;46.60;;;24.90;;
35290;SDS011;21411;50.024;19.220;2022-11-15T07:52:01;63.80;;;24.50;;
35290;SDS011;21411;50.024;19.220;2022-11-15T07:54:27;53.40;;;25.20;;
35290;SDS011;21411;50.024;19.220;2022-11-15T07:56:54;62.50;;;24.50;;
35290;SDS011;21411;50.024;19.220;2022-11-15T07:59:20;65.80;;;25.00;;
35290;SDS011;21411;50.024;19.220;2022-11-15T08:01:47;60.30;;;24.30;;
35290;SDS011;21411;50.024;19.220;2022-11-15T08:04:13;68.70;;;24.90;;
35290;SDS011;21411;50.024;19.220;2022-11-15T08:06:40;48.10;;;24.40;;
35290;SDS011;21411;50.024;19.220;2022-11-15T08:09:06;52.70;;;24.10;;
35290;SDS011;21411;50.024;19.220;2022-11-15T08:11:33;41.80;;;26.00;;
35290;SDS011;21411;50.024;19.220;2022-11-15T08:13:59;36.20;;;22.30;;
35290;SDS011;21411;50.024;19.220;2022-11-15T08:16:26;37.90;;;23.20;;
35290;SDS011;21411;50.024;19.220;2022-11-15T08:18:53;36.60;;;23.70;;
35290;SDS011;21411;50.024;19.220;2022-11-15T08:21:20;31.40;;;23.10;;
35290;SDS011;21411;50.024;19.220;2022-11-15T08:23:47;38.10;;;24.00;;
35290;SDS011;21411;50.024;19.220;2022-11-15T08:26:14;43.10;;;25.60;;
35290;SDS011;21411;50.024;19.220;2022-11-15T08:28:41;49.10;;;25.90;;
35290;SDS011;21411;50.024;19.220;2022-11-15T08:31:12;44.80;;;25.60;;
35290;SDS011;21411;50.024;19.220;2022-11-15T08:33:40;51.50;;;30.80;;
35290;SDS011;21411;50.024;19.220;2022-11-15T08:36:10;57.30;;;31.10;;
35290;SDS011;21411;50.024;19.220;2022-11-15T08:38:40;52.40;;;31.30;;
35290;SDS011;21411;50.024;19.220;2022-11-15T08:41:09;53.00;;;29.20;;
35290;SDS011;21411;50.024;19.220;2022-11-15T08:43:39;60.90;;;29.00;;
35290;SDS011;21411;50.024;19.220;2022-11-15T08:46:05;54.80;;;30.10;;
35290;SDS011;21411;50.024;19.220;2022-11-15T08:48:35;51.50;;;29.10;;
35290;SDS011;21411;50.024;19.220;2022-11-15T08:51:01;50.70;;;30.30;;
35290;SDS011;21411;50.024;19.220;2022-11-15T08:53:28;43.20;;;30.00;;
35290;SDS011;21411;50.024;19.220;2022-11-15T08:55:54;50.70;;;31.50;;
35290;SDS011;21411;50.024;19.220;2022-11-15T08:58:21;49.70;;;31.80;;
35290;SDS011;21411;50.024;19.220;2022-11-15T09:00:47;47.40;;;30.30;;
35290;SDS011;21411;50.024;19.220;2022-11-15T09:03:14;48.80;;;32.30;;
35290;SDS011;21411;50.024;19.220;2022-11-15T09:05:41;45.00;;;31.90;;
35290;SDS011;21411;50.024;19.220;2022-11-15T09:08:07;43.60;;;30.80;;
35290;SDS011;21411;50.024;19.220;2022-11-15T09:10:34;47.10;;;32.00;;
35290;SDS011;21411;50.024;19.220;2022-11-15T09:13:00;50.30;;;33.10;;
35290;SDS011;21411;50.024;19.220;2022-11-15T09:15:27;53.40;;;33.60;;
35290;SDS011;21411;50.024;19.220;2022-11-15T09:17:57;46.60;;;31.80;;
35290;SDS011;21411;50.024;19.220;2022-11-15T09:20:26;46.50;;;32.60;;
35290;SDS011;21411;50.024;19.220;2022-11-15T09:22:52;54.70;;;32.90;;
35290;SDS011;21411;50.024;19.220;2022-11-15T09:25:20;41.40;;;31.10;;
35290;SDS011;21411;50.024;19.220;2022-11-15T09:27:46;41.40;;;29.80;;
35290;SDS011;21411;50.024;19.220;2022-11-15T09:30:13;43.60;;;31.30;;
35290;SDS011;21411;50.024;19.220;2022-11-15T09:32:39;45.40;;;33.10;;
35290;SDS011;21411;50.024;19.220;2022-11-15T09:35:06;48.40;;;32.20;;
35290;SDS011;21411;50.024;19.220;2022-11-15T09:37:32;49.40;;;33.30;;
35290;SDS011;21411;50.024;19.220;2022-11-15T09:39:59;51.10;;;33.50;;
35290;SDS011;21411;50.024;19.220;2022-11-15T09:45:39;49.90;;;36.50;;
35290;SDS011;21411;50.024;19.220;2022-11-15T09:50:53;43.80;;;32.60;;
35290;SDS011;21411;50.024;19.220;2022-11-15T09:53:26;37.40;;;30.50;;
35290;SDS011;21411;50.024;19.220;2022-11-15T09:55:59;36.90;;;30.60;;
35290;SDS011;21411;50.024;19.220;2022-11-15T10:04:25;34.80;;;27.60;;
35290;SDS011;21411;50.024;19.220;2022-11-15T10:12:28;35.20;;;30.00;;
35290;SDS011;21411;50.024;19.220;2022-11-15T10:15:06;33.30;;;29.20;;
35290;SDS011;21411;50.024;19.220;2022-11-15T10:23:21;36.60;;;29.70;;
35290;SDS011;21411;50.024;19.220;2022-11-15T10:25:52;40.10;;;31.10;;
35290;SDS011;21411;50.024;19.220;2022-11-15T10:28:22;34.20;;;28.30;;
35290;SDS011;21411;50.024;19.220;2022-11-15T10:30:54;38.90;;;32.60;;
35290;SDS011;21411;50.024;19.220;2022-11-15T10:41:20;53.60;;;40.60;;
35290;SDS011;21411;50.024;19.220;2022-11-15T10:49:27;38.10;;;32.90;;
35290;SDS011;21411;50.024;19.220;2022-11-15T10:51:56;40.80;;;33.70;;
35290;SDS011;21411;50.024;19.220;2022-11-15T10:54:24;34.40;;;29.30;;
35290;SDS011;21411;50.024;19.220;2022-11-15T10:56:57;39.20;;;32.00;;
35290;SDS011;21411;50.024;19.220;2022-11-15T10:59:26;34.90;;;30.20;;
35290;SDS011;21411;50.024;19.220;2022-11-15T11:01:56;35.50;;;31.30;;
35290;SDS011;21411;50.024;19.220;2022-11-15T11:04:23;36.20;;;29.80;;
35290;SDS011;21411;50.024;19.220;2022-11-15T11:06:57;38.20;;;32.10;;
35290;SDS011;21411;50.024;19.220;2022-11-15T11:09:32;34.80;;;30.70;;
35290;SDS011;21411;50.024;19.220;2022-11-15T11:12:00;39.70;;;32.90;;
35290;SDS011;21411;50.024;19.220;2022-11-15T11:14:29;35.50;;;30.80;;
35290;SDS011;21411;50.024;19.220;2022-11-15T11:23:00;38.40;;;31.40;;
35290;SDS011;21411;50.024;19.220;2022-11-15T11:31:09;42.30;;;33.90;;
35290;SDS011;21411;50.024;19.220;2022-11-15T11:36:50;41.50;;;34.20;;
35290;SDS011;21411;50.024;19.220;2022-11-15T11:48:01;39.40;;;32.70;;
35290;SDS011;21411;50.024;19.220;2022-11-15T11:50:38;39.20;;;33.20;;
35290;SDS011;21411;50.024;19.220;2022-11-15T11:53:11;43.90;;;34.50;;
35290;SDS011;21411;50.024;19.220;2022-11-15T11:55:43;44.00;;;36.20;;
35290;SDS011;21411;50.024;19.220;2022-11-15T12:03:56;42.90;;;37.80;;
35290;SDS011;21411;50.024;19.220;2022-11-15T12:06:35;47.30;;;38.30;;
35290;SDS011;21411;50.024;19.220;2022-11-15T12:09:27;47.70;;;38.90;;
35290;SDS011;21411;50.024;19.220;2022-11-15T12:12:17;47.80;;;39.10;;
35290;SDS011;21411;50.024;19.220;2022-11-15T12:14:50;48.30;;;39.20;;
35290;SDS011;21411;50.024;19.220;2022-11-15T12:17:24;47.20;;;40.10;;
35290;SDS011;21411;50.024;19.220;2022-11-15T12:19:55;49.30;;;40.20;;
35290;SDS011;21411;50.024;19.220;2022-11-15T12:22:27;49.50;;;40.80;;
35290;SDS011;21411;50.024;19.220;2022-11-15T12:25:08;51.10;;;41.40;;
35290;SDS011;21411;50.024;19.220;2022-11-15T12:27:59;51.60;;;39.90;;
35290;SDS011;21411;50.024;19.220;2022-11-15T12:33:45;53.60;;;40.50;;
35290;SDS011;21411;50.024;19.220;2022-11-15T12:39:02;54.70;;;42.30;;
35290;SDS011;21411;50.024;19.220;2022-11-15T12:41:37;53.60;;;42.70;;
35290;SDS011;21411;50.024;19.220;2022-11-15T12:44:10;53.10;;;43.90;;
35290;SDS011;21411;50.024;19.220;2022-11-15T12:59:47;56.00;;;42.60;;
35290;SDS011;21411;50.024;19.220;2022-11-15T13:02:21;52.10;;;40.40;;
35290;SDS011;21411;50.024;19.220;2022-11-15T13:04:50;55.30;;;43.40;;
35290;SDS011;21411;50.024;19.220;2022-11-15T13:07:55;50.70;;;41.10;;
35290;SDS011;21411;50.024;19.220;2022-11-15T13:22:45;50.60;;;41.00;;
35290;SDS011;21411;50.024;19.220;2022-11-15T13:27:59;67.80;;;56.30;;
35290;SDS011;21411;50.024;19.220;2022-11-15T13:30:28;60.00;;;48.20;;
35290;SDS011;21411;50.024;19.220;2022-11-15T13:32:58;58.10;;;44.20;;
35290;SDS011;21411;50.024;19.220;2022-11-15T13:35:45;56.00;;;43.30;;
35290;SDS011;21411;50.024;19.220;2022-11-15T13:38:30;62.00;;;51.00;;
35290;SDS011;21411;50.024;19.220;2022-11-15T13:40:59;63.30;;;50.30;;
35290;SDS011;21411;50.024;19.220;2022-11-15T13:43:37;60.00;;;47.10;;
35290;SDS011;21411;50.024;19.220;2022-11-15T13:46:05;66.20;;;49.00;;
35290;SDS011;21411;50.024;19.220;2022-11-15T13:48:38;61.00;;;49.80;;
35290;SDS011;21411;50.024;19.220;2022-11-15T13:51:09;60.40;;;48.90;;
35290;SDS011;21411;50.024;19.220;2022-11-15T13:53:45;61.10;;;49.30;;
35290;SDS011;21411;50.024;19.220;2022-11-15T13:56:15;61.60;;;47.00;;
35290;SDS011;21411;50.024;19.220;2022-11-15T13:58:43;60.90;;;47.50;;
35290;SDS011;21411;50.024;19.220;2022-11-15T14:01:14;59.30;;;47.10;;
35290;SDS011;21411;50.024;19.220;2022-11-15T14:03:54;60.70;;;48.90;;
35290;SDS011;21411;50.024;19.220;2022-11-15T14:06:24;58.10;;;45.90;;
35290;SDS011;21411;50.024;19.220;2022-11-15T14:11:34;63.70;;;48.60;;
35290;SDS011;21411;50.024;19.220;2022-11-15T14:16:34;62.30;;;50.20;;
35290;SDS011;21411;50.024;19.220;2022-11-15T14:19:04;66.10;;;51.50;;
35290;SDS011;21411;50.024;19.220;2022-11-15T14:21:33;68.50;;;51.70;;
35290;SDS011;21411;50.024;19.220;2022-11-15T14:24:19;69.80;;;54.50;;
35290;SDS011;21411;50.024;19.220;2022-11-15T14:26:47;65.70;;;53.80;;
35290;SDS011;21411;50.024;19.220;2022-11-15T14:32:05;69.00;;;55.00;;
35290;SDS011;21411;50.024;19.220;2022-11-15T14:34:38;82.90;;;67.90;;
35290;SDS011;21411;50.024;19.220;2022-11-15T14:37:04;77.10;;;63.90;;
35290;SDS011;21411;50.024;19.220;2022-11-15T14:39:31;77.10;;;62.10;;
35290;SDS011;21411;50.024;19.220;2022-11-15T14:41:58;82.70;;;66.60;;
35290;SDS011;21411;50.024;19.220;2022-11-15T14:44:24;78.70;;;67.10;;
35290;SDS011;21411;50.024;19.220;2022-11-15T14:46:51;78.00;;;61.60;;
35290;SDS011;21411;50.024;19.220;2022-11-15T14:49:17;79.70;;;61.40;;
35290;SDS011;21411;50.024;19.220;2022-11-15T14:51:44;83.90;;;63.80;;
35290;SDS011;21411;50.024;19.220;2022-11-15T14:54:10;86.20;;;60.50;;
35290;SDS011;21411;50.024;19.220;2022-11-15T14:56:37;73.40;;;59.50;;
35290;SDS011;21411;50.024;19.220;2022-11-15T14:59:03;73.80;;;58.40;;
35290;SDS011;21411;50.024;19.220;2022-11-15T15:01:30;75.20;;;58.60;;
35290;SDS011;21411;50.024;19.220;2022-11-15T15:03:57;75.00;;;62.20;;
35290;SDS011;21411;50.024;19.220;2022-11-15T15:06:24;73.80;;;58.20;;
35290;SDS011;21411;50.024;19.220;2022-11-15T15:08:51;70.30;;;55.90;;
35290;SDS011;21411;50.024;19.220;2022-11-15T15:11:20;66.50;;;54.40;;
35290;SDS011;21411;50.024;19.220;2022-11-15T15:13:52;73.10;;;55.40;;
35290;SDS011;21411;50.024;19.220;2022-11-15T15:16:19;74.30;;;60.30;;
35290;SDS011;21411;50.024;19.220;2022-11-15T15:18:46;96.10;;;71.60;;
35290;SDS011;21411;50.024;19.220;2022-11-15T15:21:23;81.70;;;65.60;;
35290;SDS011;21411;50.024;19.220;2022-11-15T15:23:51;83.80;;;66.10;;
35290;SDS011;21411;50.024;19.220;2022-11-15T15:26:20;94.10;;;73.30;;
35290;SDS011;21411;50.024;19.220;2022-11-15T15:28:48;95.70;;;72.30;;
35290;SDS011;21411;50.024;19.220;2022-11-15T15:31:17;75.70;;;62.30;;
35290;SDS011;21411;50.024;19.220;2022-11-15T15:33:44;91.10;;;72.90;;
35290;SDS011;21411;50.024;19.220;2022-11-15T15:36:11;81.70;;;64.70;;
35290;SDS011;21411;50.024;19.220;2022-11-15T15:38:39;89.50;;;72.70;;
35290;SDS011;21411;50.024;19.220;2022-11-15T15:41:12;85.00;;;67.80;;
35290;SDS011;21411;50.024;19.220;2022-11-15T15:43:40;86.90;;;66.10;;
35290;SDS011;21411;50.024;19.220;2022-11-15T15:46:08;86.10;;;64.50;;
35290;SDS011;21411;50.024;19.220;2022-11-15T15:48:37;80.60;;;64.50;;
35290;SDS011;21411;50.024;19.220;2022-11-15T15:51:05;111.20;;;86.20;;
35290;SDS011;21411;50.024;19.220;2022-11-15T15:53:32;113.10;;;86.70;;
35290;SDS011;21411;50.024;19.220;2022-11-15T15:55:59;116.80;;;88.80;;
35290;SDS011;21411;50.024;19.220;2022-11-15T15:58:26;118.60;;;93.50;;
35290;SDS011;21411;50.024;19.220;2022-11-15T16:00:53;119.60;;;95.40;;
35290;SDS011;21411;50.024;19.220;2022-11-15T16:03:19;122.00;;;95.20;;
35290;SDS011;21411;50.024;19.220;2022-11-15T16:05:46;118.40;;;95.90;;
35290;SDS011;21411;50.024;19.220;2022-11-15T16:08:20;121.60;;;97.30;;
35290;SDS011;21411;50.024;19.220;2022-11-15T16:10:48;118.00;;;93.80;;
35290;SDS011;21411;50.024;19.220;2022-11-15T16:13:15;113.70;;;91.10;;
35290;SDS011;21411;50.024;19.220;2022-11-15T16:15:42;111.00;;;88.70;;
35290;SDS011;21411;50.024;19.220;2022-11-15T16:18:12;115.40;;;86.40;;
35290;SDS011;21411;50.024;19.220;2022-11-15T16:20:47;109.50;;;85.40;;
35290;SDS011;21411;50.024;19.220;2022-11-15T16:23:22;111.00;;;86.10;;
35290;SDS011;21411;50.024;19.220;2022-11-15T16:25:51;111.30;;;85.40;;
35290;SDS011;21411;50.024;19.220;2022-11-15T16:30:58;112.80;;;87.20;;
35290;SDS011;21411;50.024;19.220;2022-11-15T16:33:29;120.60;;;91.90;;
35290;SDS011;21411;50.024;19.220;2022-11-15T16:35:56;114.90;;;89.90;;
35290;SDS011;21411;50.024;19.220;2022-11-15T16:38:23;122.70;;;98.30;;
35290;SDS011;21411;50.024;19.220;2022-11-15T16:40:50;107.80;;;85.60;;
35290;SDS011;21411;50.024;19.220;2022-11-15T16:43:18;101.10;;;81.60;;
35290;SDS011;21411;50.024;19.220;2022-11-15T16:45:48;113.50;;;87.60;;
35290;SDS011;21411;50.024;19.220;2022-11-15T16:50:53;147.90;;;119.20;;
35290;SDS011;21411;50.024;19.220;2022-11-15T16:53:24;133.70;;;105.80;;
35290;SDS011;21411;50.024;19.220;2022-11-15T16:55:53;122.80;;;96.60;;
35290;SDS011;21411;50.024;19.220;2022-11-15T16:58:20;118.50;;;92.00;;
35290;SDS011;21411;50.024;19.220;2022-11-15T17:00:53;113.30;;;89.30;;
35290;SDS011;21411;50.024;19.220;2022-11-15T17:03:21;124.90;;;92.20;;